Welcome to Trans World Virtual Airlines!

Welcome TWVA's Newest Pilot:

TWA2313 Bryan Heald

Not a Trans World pilot yet?
Apply Now!




Sign-in with your pilot id or email, or register

Flight TWA7859

  • Submitted By: Austin Hill
  • Departure Airport: Ronald Reagan Washington National Airport (KDCA)
  • Arrival Airport: Kansas City International Airport (KMCI)
  • Aircraft: E170 (N173TE)
  • Flight Time: 02.51
  • Date Submitted: 08/25/2018
  • Route: DCA OTTTO COLNS HNN STL MCM MCI
  • Status: Accepted
Flight Details
Gross Revenue:
(68 load / $ 265.00 per unit
$ 18, 020.00
Fuel Cost:
(9513 fuel used @ 0.8 / unit)
$ 7, 610.40

Additional Log Information:

View Log

FS[21:49] Aircraft Title - Embraer 170 TWA
FS[21:49] Aircraft Model - E-170
FS[21:49] Flight Number TWA7859
FS[21:49] Departure KDCA
FS[21:49] Destination KMCI
FS[21:49] Boarding
FS[21:58] Pushing Back
FS[22:04] Taxiing to Runway
FS[22:12] Taking Off
FS[22:12] Taking Off
FS[22:12] 152kts
FS[22:12] pitch angle 5 degrees
FS[22:12] 15032 (lbs) of fuel onboard
FS[22:12] Climbing
FS[22:30] TOC Reached
FS[22:30] Cruise 32000
FS[23:58] TOD Reached
FS[23:58] Descending
FS[00:13] On Approach
FS[00:23] Landing Rate -124fpm
FS[00:23] 6419 (lbs) of fuel onboard
FS[00:23] pitch angle 6 degrees
FS[00:24] Taxiing to Gate
FS[00:29] Arrived
FS[00:35] Max Sim Rate: 1x
FS[00:35] kACARS_Free Version 1.0.1.1

Comments

Commenter Comment
Austin Hill KDCA 252150Z 17010KT 10SM SCT055 SCT150 28/16 A3021 // KMCI 250000Z 18010KT 10SM SCT110 SCT200 32/22 A2993

Route Map